createdAt,value
2022-09-23T00:03:42.117Z,13.69
2022-09-23T00:08:45.254Z,12.35
2022-09-23T00:13:51.963Z,12.92
2022-09-23T00:18:54.899Z,15.80
2022-09-23T00:23:57.734Z,16.53
2022-09-23T00:29:00.549Z,14.57
2022-09-23T00:34:03.457Z,12.75
2022-09-23T00:39:06.656Z,12.99
2022-09-23T00:44:43.384Z,15.73
2022-09-23T00:49:52.345Z,15.49
2022-09-23T00:54:59.024Z,13.28
2022-09-23T01:00:02.090Z,12.01
2022-09-23T01:05:06.986Z,13.72
2022-09-23T01:10:13.779Z,15.91
2022-09-23T01:15:27.031Z,15.64
2022-09-23T01:20:55.913Z,13.11
2022-09-23T01:26:10.840Z,11.60
2022-09-23T01:31:40.505Z,13.27
2022-09-23T01:36:47.962Z,15.75
2022-09-23T01:41:59.771Z,15.64
2022-09-23T01:47:21.409Z,13.34
2022-09-23T01:52:35.058Z,11.88
2022-09-23T01:57:49.355Z,13.01
2022-09-23T02:03:07.904Z,15.48
2022-09-23T02:08:42.786Z,15.31
2022-09-23T02:13:48.550Z,12.84
2022-09-23T02:19:19.025Z,12.90
2022-09-23T02:24:28.166Z,15.54
2022-09-23T02:29:43.943Z,14.99
2022-09-23T02:34:54.209Z,12.60
2022-09-23T02:40:26.657Z,12.75
2022-09-23T02:45:29.601Z,15.32
2022-09-23T02:50:34.341Z,14.02
2022-09-23T02:55:37.031Z,12.04
2022-09-23T03:00:57.742Z,12.34
2022-09-23T03:06:14.081Z,15.12
2022-09-23T03:11:18.145Z,14.55
2022-09-23T03:16:43.755Z,12.38
2022-09-23T03:22:05.519Z,12.66
2022-09-23T03:27:13.991Z,15.25
2022-09-23T03:32:20.824Z,14.40
2022-09-23T03:37:31.515Z,12.21
2022-09-23T03:42:34.970Z,10.93
2022-09-23T03:47:39.574Z,11.73
2022-09-23T03:52:42.211Z,14.88
2022-09-23T03:57:46.469Z,15.09
2022-09-23T04:02:49.927Z,12.61
2022-09-23T04:07:53.202Z,11.41
2022-09-23T04:12:56.676Z,14.16
2022-09-23T04:17:59.361Z,14.49
2022-09-23T04:23:02.126Z,12.12
2022-09-23T04:28:04.904Z,12.29
2022-09-23T04:33:07.736Z,14.97
2022-09-23T04:38:13.499Z,13.75
2022-09-23T04:43:16.975Z,11.79
2022-09-23T04:48:19.896Z,13.06
2022-09-23T04:53:22.615Z,15.05
2022-09-23T04:58:25.385Z,13.40
2022-09-23T05:03:30.274Z,11.44
2022-09-23T05:08:33.143Z,12.02
2022-09-23T05:13:36.883Z,14.87
2022-09-23T05:18:42.800Z,14.73
2022-09-23T05:23:53.540Z,12.55
2022-09-23T05:28:57.138Z,11.28
2022-09-23T05:34:02.393Z,12.40
2022-09-23T05:39:08.850Z,15.05
2022-09-23T05:44:11.883Z,14.89
2022-09-23T05:49:14.619Z,12.62
2022-09-23T05:54:17.647Z,14.57
2022-09-23T05:59:20.479Z,15.03
2022-09-23T06:04:24.258Z,12.75
2022-09-23T06:09:27.318Z,12.36
2022-09-23T06:14:30.209Z,15.09
2022-09-23T06:20:17.169Z,14.43
2022-09-23T06:25:27.215Z,12.90
2022-09-23T06:30:30.084Z,15.58
2022-09-23T06:35:49.000Z,14.97
2022-09-23T06:40:58.754Z,12.54
2022-09-23T06:46:37.005Z,13.37
2022-09-23T06:51:43.335Z,15.89
2022-09-23T06:56:56.745Z,15.28
2022-09-23T07:02:04.214Z,13.25
2022-09-23T07:07:07.488Z,13.86
2022-09-23T07:12:10.402Z,16.62
2022-09-23T07:17:13.568Z,16.28
2022-09-23T07:22:16.437Z,14.31
2022-09-23T07:27:20.281Z,13.22
2022-09-23T07:32:23.487Z,14.06
2022-09-23T07:37:29.080Z,16.89
2022-09-23T08:12:58.761Z,17.01
2022-09-23T08:18:04.301Z,17.83
2022-09-23T08:23:07.376Z,16.11
2022-09-23T08:28:10.205Z,14.92
2022-09-23T08:33:14.475Z,15.64
2022-09-23T08:38:18.836Z,18.10
2022-09-23T08:43:31.427Z,16.70
2022-09-23T08:48:50.534Z,15.17
2022-09-23T08:53:55.347Z,15.80
2022-09-23T08:59:12.352Z,17.51
2022-09-23T09:04:35.800Z,15.80
2022-09-23T09:09:51.507Z,14.80
2022-09-23T09:14:57.138Z,16.95
2022-09-23T09:20:13.317Z,18.01
2022-09-23T09:25:35.840Z,16.28
2022-09-23T09:30:39.455Z,15.25
2022-09-23T09:36:26.766Z,16.32
2022-09-23T09:41:31.583Z,17.81
2022-09-23T09:47:09.162Z,16.33
2022-09-23T09:52:26.938Z,15.69
2022-09-23T09:57:36.177Z,17.63
2022-09-23T10:02:40.043Z,19.46
2022-09-23T10:07:42.765Z,18.42
2022-09-23T10:12:56.750Z,17.92
2022-09-23T10:18:02.646Z,17.68
2022-09-23T10:23:08.826Z,17.58
2022-09-23T10:28:37.231Z,17.53
2022-09-23T10:33:59.386Z,17.44
2022-09-23T10:39:25.217Z,16.97
2022-09-23T10:45:20.384Z,16.48
2022-09-23T10:50:45.200Z,16.46
2022-09-23T10:56:06.311Z,19.45
2022-09-23T11:01:46.645Z,19.37
2022-09-23T11:07:07.723Z,17.79
2022-09-23T11:12:45.880Z,17.11
2022-09-23T11:17:51.450Z,16.62
2022-09-23T11:23:10.068Z,16.33
2022-09-23T11:28:46.806Z,16.18
2022-09-23T11:34:27.363Z,16.01
2022-09-23T11:39:37.523Z,15.76
2022-09-23T11:44:50.412Z,15.46
2022-09-23T11:50:29.795Z,15.11
2022-09-23T11:55:52.882Z,15.23
2022-09-23T12:01:10.071Z,17.08
2022-09-23T12:06:20.262Z,15.98
2022-09-23T12:11:40.678Z,15.27
2022-09-23T12:17:02.836Z,14.82
2022-09-23T12:22:14.419Z,14.51
2022-09-23T12:27:27.974Z,14.88
2022-09-23T12:32:32.387Z,18.14
2022-09-23T12:37:41.893Z,18.10
2022-09-23T12:42:47.124Z,16.57
2022-09-23T12:47:50.538Z,15.78
2022-09-23T12:52:53.404Z,15.28
2022-09-23T12:57:56.079Z,14.97
2022-09-23T13:03:19.804Z,14.77
2022-09-23T13:08:24.943Z,14.68
2022-09-23T13:13:36.122Z,15.07
2022-09-23T13:19:00.179Z,18.43
2022-09-23T13:24:20.054Z,18.87
2022-09-23T13:29:41.103Z,17.37
2022-09-23T13:34:55.278Z,16.68
2022-09-23T13:40:21.243Z,16.31
2022-09-23T13:45:25.945Z,16.13
2022-09-23T13:50:34.704Z,16.06
2022-09-23T13:55:41.358Z,15.93
2022-09-23T14:00:44.533Z,15.92
2022-09-23T14:05:48.854Z,15.95
2022-09-23T14:10:53.804Z,15.97
2022-09-23T14:16:00.582Z,16.01
2022-09-23T14:21:04.496Z,15.99
2022-09-23T14:26:07.237Z,15.93
2022-09-23T14:31:14.497Z,15.80
2022-09-23T14:36:57.409Z,15.69
2022-09-23T14:42:00.194Z,15.57
2022-09-23T14:47:03.277Z,15.46
2022-09-23T14:52:07.097Z,15.32
2022-09-23T14:57:25.547Z,15.18
2022-09-23T15:03:04.492Z,15.05
2022-09-23T15:08:07.693Z,16.61
2022-09-23T15:13:17.939Z,19.29
2022-09-23T15:18:25.474Z,18.14
2022-09-23T15:23:43.173Z,17.03
2022-09-23T15:28:47.176Z,16.43
2022-09-23T15:33:51.064Z,16.07
2022-09-23T15:38:57.365Z,15.74
2022-09-23T15:44:33.337Z,15.40
2022-09-23T15:49:41.525Z,15.10
2022-09-23T15:54:44.297Z,14.90
2022-09-23T15:59:47.289Z,16.08
2022-09-23T16:04:51.520Z,19.20
2022-09-23T16:09:54.942Z,18.87
2022-09-23T16:14:57.664Z,17.34
2022-09-23T16:20:00.841Z,16.53
2022-09-23T16:25:06.227Z,15.99
2022-09-23T16:30:10.362Z,15.54
2022-09-23T16:35:13.066Z,15.14
2022-09-23T16:40:20.615Z,14.81
2022-09-23T16:45:24.479Z,14.55
2022-09-23T16:50:29.417Z,14.32
2022-09-23T16:55:32.177Z,15.52
2022-09-23T17:01:07.326Z,18.45
2022-09-23T17:06:13.381Z,17.46
2022-09-23T17:11:19.837Z,16.28
2022-09-23T17:16:28.444Z,15.59
2022-09-23T17:21:34.501Z,15.04
2022-09-23T17:26:39.347Z,14.57
2022-09-23T17:31:42.482Z,15.70
2022-09-23T17:36:45.976Z,18.80
2022-09-23T17:41:48.668Z,18.36
2022-09-23T17:46:52.860Z,16.78
2022-09-23T17:51:56.954Z,15.94
2022-09-23T17:56:59.995Z,15.38
2022-09-23T18:02:02.870Z,14.88
2022-09-23T18:07:05.722Z,15.91
2022-09-23T18:12:08.470Z,18.81
2022-09-23T18:17:11.346Z,17.70
2022-09-23T18:22:14.149Z,16.31
2022-09-23T18:27:17.254Z,15.56
2022-09-23T18:32:21.703Z,15.00
2022-09-23T18:37:24.546Z,15.98
2022-09-23T18:42:27.670Z,18.84
2022-09-23T18:47:49.537Z,18.20
2022-09-23T18:52:53.128Z,16.37
2022-09-23T18:57:57.564Z,15.40
2022-09-23T19:03:00.672Z,16.16
2022-09-23T19:08:03.385Z,19.02
2022-09-23T19:13:06.097Z,18.72
2022-09-23T19:18:08.781Z,16.79
2022-09-23T19:23:11.457Z,15.70
2022-09-23T19:28:14.561Z,16.42
2022-09-23T19:33:17.261Z,19.14
2022-09-23T19:38:21.446Z,18.96
2022-09-23T19:43:25.272Z,16.99
2022-09-23T19:48:28.204Z,15.78
2022-09-23T19:53:30.860Z,16.27
2022-09-23T19:58:36.546Z,18.86
2022-09-23T20:03:39.285Z,18.14
2022-09-23T20:08:42.225Z,16.34
2022-09-23T20:13:47.262Z,15.30
2022-09-23T20:18:52.650Z,16.04
2022-09-23T20:23:56.393Z,18.71
2022-09-23T20:29:01.820Z,18.12
2022-09-23T20:34:07.161Z,16.27
2022-09-23T20:39:10.461Z,15.27
2022-09-23T20:44:14.014Z,15.93
2022-09-23T20:49:17.913Z,18.51
2022-09-23T20:54:22.131Z,17.39
2022-09-23T20:59:27.304Z,15.93
2022-09-23T21:04:30.842Z,15.10
2022-09-23T21:09:33.548Z,15.87
2022-09-23T21:14:36.447Z,18.58
2022-09-23T21:19:39.116Z,17.65
2022-09-23T21:30:05.025Z,14.90
2022-09-23T21:35:09.978Z,15.58
2022-09-23T21:40:31.447Z,18.35
2022-09-23T21:45:34.204Z,17.63
2022-09-23T21:50:42.565Z,15.86
2022-09-23T21:55:48.946Z,14.85
2022-09-23T22:00:51.695Z,15.71
2022-09-23T22:06:04.434Z,18.46
2022-09-23T22:11:34.241Z,17.67
2022-09-23T22:16:37.229Z,15.80
2022-09-23T22:21:42.557Z,14.79
2022-09-23T22:26:45.998Z,15.42
2022-09-23T22:32:07.740Z,17.98
2022-09-23T22:37:10.523Z,16.93
2022-09-23T22:42:13.416Z,15.30
2022-09-23T22:47:18.074Z,14.36
2022-09-23T22:52:24.509Z,13.68
2022-09-23T22:57:27.349Z,14.53
2022-09-23T23:02:30.185Z,17.34
2022-09-23T23:07:34.206Z,17.10
2022-09-23T23:12:37.059Z,15.27
2022-09-23T23:17:41.431Z,14.22
2022-09-23T23:22:44.174Z,14.87
2022-09-23T23:27:46.862Z,17.50
2022-09-23T23:32:49.870Z,16.68
2022-09-23T23:37:52.529Z,14.93
2022-09-23T23:42:55.874Z,13.88
2022-09-23T23:47:58.647Z,13.18
2022-09-23T23:53:01.321Z,14.05
2022-09-23T23:58:04.051Z,16.90
